Time;durP1;ratioP1;P1;durP2;ratioP2;P2;SDS_P1;SDS_P2;PMS_P1;PMS_P2;Temp;Humidity;BMP_temperature;BMP_pressure;BME280_temperature;BME280_humidity;BME280_pressure;Samples;Min_cycle;Max_cycle;Signal;HPM_P1;HPM_P2
2022/03/17 00:00:15;;;;;;;28.42;18.08;;;10.60;99.90;;;;;;4959149;28;20042;-95
2022/03/17 00:02:42;;;;;;;27.23;17.20;;;10.60;99.90;;;;;;4959046;28;20042;-94
2022/03/17 00:05:09;;;;;;;28.00;17.50;;;10.80;99.90;;;;;;4955866;28;20043;-94
2022/03/17 00:07:36;;;;;;;27.60;18.02;;;10.60;99.90;;;;;;4935165;28;20043;-95
2022/03/17 00:10:11;;;;;;;27.65;17.10;;;10.60;99.90;;;;;;4974695;28;20046;-94
2022/03/17 00:12:37;;;;;;;28.15;18.60;;;10.60;99.90;;;;;;4958291;28;20105;-89
2022/03/17 00:15:06;;;;;;;29.88;18.42;;;10.60;99.90;;;;;;4964268;28;20043;-89
2022/03/17 00:17:32;;;;;;;28.55;18.63;;;10.60;99.90;;;;;;4938678;28;20478;-88
2022/03/17 00:19:58;;;;;;;29.08;18.55;;;10.60;99.90;;;;;;4974411;28;20041;-89
2022/03/17 00:22:24;;;;;;;28.35;19.60;;;9.80;99.90;;;;;;4969342;28;20054;-89
2022/03/17 00:24:49;;;;;;;29.35;19.40;;;10.50;99.90;;;;;;4956838;28;20058;-89
2022/03/17 00:27:15;;;;;;;28.52;18.40;;;10.50;99.90;;;;;;4967659;28;20137;-89
2022/03/17 00:29:41;;;;;;;27.55;18.35;;;10.50;99.90;;;;;;4974335;28;20027;-92
2022/03/17 00:32:08;;;;;;;29.95;18.90;;;10.50;99.90;;;;;;4952474;28;20490;-92
2022/03/17 00:35:35;;;;;;;28.38;18.90;;;10.50;99.90;;;;;;4938326;28;20042;-92
2022/03/17 00:37:23;;;;;;;29.67;19.08;;;10.50;99.90;;;;;;4969095;28;20110;-92
2022/03/17 00:39:49;;;;;;;28.55;19.10;;;10.50;99.90;;;;;;4965597;28;20047;-92
2022/03/17 00:42:15;;;;;;;28.95;18.88;;;10.50;99.90;;;;;;4952590;28;20441;-92
2022/03/17 00:44:41;;;;;;;28.92;19.13;;;10.40;99.90;;;;;;4966944;28;20034;-89
2022/03/17 00:47:07;;;;;;;31.38;19.10;;;10.40;99.90;;;;;;4962140;28;20054;-89
2022/03/17 00:49:33;;;;;;;30.98;20.20;;;10.40;99.90;;;;;;4942375;28;20489;-89
2022/03/17 00:51:59;;;;;;;29.88;19.98;;;10.50;99.90;;;;;;4972392;28;20089;-89
2022/03/17 00:54:26;;;;;;;28.80;19.73;;;10.50;99.90;;;;;;4920415;28;20077;-89
2022/03/17 00:56:52;;;;;;;29.30;18.77;;;10.50;99.90;;;;;;4955538;28;20041;-89
2022/03/17 00:59:18;;;;;;;28.15;19.45;;;10.50;99.90;;;;;;4956816;28;20039;-89
2022/03/17 01:01:44;;;;;;;28.40;19.08;;;10.50;99.90;;;;;;4971498;28;20042;-88
2022/03/17 01:04:10;;;;;;;31.30;20.23;;;10.70;99.90;;;;;;4956622;28;20092;-88
2022/03/17 01:06:36;;;;;;;30.42;20.10;;;10.50;99.90;;;;;;4959812;28;20473;-89
2022/03/17 01:09:02;;;;;;;27.60;18.38;;;10.50;99.90;;;;;;4942147;28;20449;-89
2022/03/17 01:11:27;;;;;;;30.55;20.20;;;10.50;99.90;;;;;;4960232;28;20042;-88
2022/03/17 01:13:53;;;;;;;31.30;19.55;;;10.50;99.90;;;;;;4961034;28;20046;-89
2022/03/17 01:16:19;;;;;;;32.95;20.65;;;10.50;99.90;;;;;;4956311;28;20055;-89
2022/03/17 01:18:44;;;;;;;27.08;19.25;;;10.60;99.90;;;;;;4951347;28;20401;-89
2022/03/17 01:21:13;;;;;;;28.27;19.30;;;10.50;99.90;;;;;;4955910;28;20042;-89
2022/03/17 01:23:39;;;;;;;30.70;19.92;;;10.60;99.90;;;;;;4938964;28;20039;-90
2022/03/17 01:26:05;;;;;;;30.13;19.80;;;11.10;99.90;;;;;;4937879;28;20042;-89
2022/03/17 01:28:31;;;;;;;28.95;19.45;;;11.00;99.90;;;;;;4956032;28;20136;-89
2022/03/17 01:30:56;;;;;;;32.92;20.50;;;10.60;99.90;;;;;;4938195;28;20486;-89
2022/03/17 01:33:22;;;;;;;31.77;20.33;;;10.60;99.90;;;;;;4940049;28;20054;-89
2022/03/17 01:35:48;;;;;;;30.02;19.95;;;10.60;99.90;;;;;;4956289;28;20043;-93
2022/03/17 01:38:14;;;;;;;28.33;20.05;;;10.60;99.90;;;;;;4956144;28;20038;-93
2022/03/17 01:40:39;;;;;;;29.40;19.50;;;10.60;99.90;;;;;;4939309;28;20042;-93
2022/03/17 01:43:05;;;;;;;27.77;18.38;;;10.70;99.90;;;;;;4941321;28;20046;-93
2022/03/17 01:45:31;;;;;;;28.50;20.05;;;10.70;99.90;;;;;;4973330;28;20065;-94
2022/03/17 01:47:57;;;;;;;27.20;19.30;;;10.50;99.90;;;;;;4973684;28;20497;-93
2022/03/17 01:50:23;;;;;;;28.65;20.17;;;10.70;99.90;;;;;;4956661;28;20493;-92
2022/03/17 01:52:49;;;;;;;27.80;18.98;;;10.70;99.90;;;;;;4957007;28;20452;-89
2022/03/17 01:55:20;;;;;;;29.17;20.83;;;10.60;99.90;;;;;;4972895;28;20050;-90
2022/03/17 01:57:47;;;;;;;31.13;20.50;;;10.60;99.90;;;;;;4989324;28;20043;-90
2022/03/17 02:00:19;;;;;;;30.58;20.63;;;10.40;99.90;;;;;;4972632;28;20038;-89
2022/03/17 02:02:50;;;;;;;31.65;21.65;;;10.30;99.90;;;;;;4943622;28;20043;-90
2022/03/17 02:05:17;;;;;;;29.40;20.70;;;10.20;99.90;;;;;;4960207;28;20039;-90
2022/03/17 02:07:48;;;;;;;32.83;21.40;;;10.10;99.90;;;;;;4959385;28;20034;-90
2022/03/17 02:10:13;;;;;;;31.73;21.67;;;10.30;99.90;;;;;;4964867;28;20039;-95
2022/03/17 02:15:26;;;;;;;30.60;22.08;;;10.20;99.90;;;;;;4959677;28;20051;-95
2022/03/17 02:17:52;;;;;;;34.15;21.45;;;10.00;99.90;;;;;;4973377;28;20114;-94
2022/03/17 02:20:18;;;;;;;34.28;24.08;;;10.10;99.90;;;;;;4947708;28;20438;-95
2022/03/17 02:22:46;;;;;;;32.33;22.00;;;10.10;99.90;;;;;;4961140;28;20051;-95
2022/03/17 02:27:59;;;;;;;32.40;23.10;;;10.10;99.90;;;;;;4963151;28;20469;-92
2022/03/17 02:30:25;;;;;;;34.67;24.27;;;10.30;99.90;;;;;;4971245;28;20101;-92
2022/03/17 02:32:59;;;;;;;34.53;23.25;;;10.40;99.90;;;;;;4969861;28;20062;-92
2022/03/17 02:35:25;;;;;;;31.50;21.90;;;10.50;99.90;;;;;;4972154;28;20055;-92
2022/03/17 02:37:51;;;;;;;31.30;22.00;;;10.20;99.90;;;;;;4962655;28;20047;-92
2022/03/17 02:40:17;;;;;;;32.80;22.40;;;10.90;99.90;;;;;;4953006;28;20129;-92
2022/03/17 02:42:45;;;;;;;33.08;23.00;;;10.30;99.90;;;;;;4959434;28;20034;-96
2022/03/17 02:45:10;;;;;;;34.47;24.08;;;10.30;99.90;;;;;;4960968;28;20130;-95
2022/03/17 02:47:37;;;;;;;34.65;23.23;;;10.30;99.90;;;;;;4960793;28;20078;-96
2022/03/17 02:50:04;;;;;;;33.08;24.05;;;10.40;99.90;;;;;;4944688;28;20043;-96
2022/03/17 02:52:30;;;;;;;35.45;24.00;;;10.40;99.90;;;;;;4944518;28;20047;-96
2022/03/17 02:54:56;;;;;;;35.40;23.10;;;10.40;99.90;;;;;;4960591;28;20054;-95
2022/03/17 02:57:22;;;;;;;38.10;22.67;;;10.40;99.90;;;;;;4960658;28;20042;-95
2022/03/17 02:59:54;;;;;;;36.10;24.13;;;10.40;99.90;;;;;;4976633;28;20053;-95
2022/03/17 03:02:21;;;;;;;36.38;24.85;;;10.50;99.90;;;;;;4960770;28;20042;-94
2022/03/17 03:04:46;;;;;;;32.35;24.48;;;10.50;99.90;;;;;;4944603;28;20046;-95
2022/03/17 03:07:12;;;;;;;37.42;25.02;;;10.50;99.90;;;;;;4944135;28;20069;-95
2022/03/17 03:09:38;;;;;;;34.95;24.67;;;10.50;99.90;;;;;;4960664;28;20089;-95
2022/03/17 03:12:04;;;;;;;34.63;24.90;;;10.50;99.90;;;;;;4944050;28;20545;-95
2022/03/17 03:14:30;;;;;;;34.72;25.85;;;10.50;99.90;;;;;;4953623;28;20035;-93
2022/03/17 03:16:56;;;;;;;35.10;25.90;;;;;;;;;;4958010;28;20126;-92
2022/03/17 03:19:22;;;;;;;38.88;26.27;;;10.60;99.90;;;;;;4958610;28;20074;-92
2022/03/17 03:21:48;;;;;;;34.70;25.23;;;10.60;99.90;;;;;;4933824;29;20078;-92
2022/03/17 03:24:15;;;;;;;37.40;25.00;;;10.60;99.90;;;;;;4939742;28;20093;-88
2022/03/17 03:26:41;;;;;;;44.00;29.63;;;10.60;99.90;;;;;;4953358;28;20444;-88
2022/03/17 03:29:25;;;;;;;40.83;27.35;;;10.50;99.90;;;;;;4956860;28;20053;-88
2022/03/17 03:31:53;;;;;;;38.33;28.48;;;10.40;99.90;;;;;;4954073;28;20038;-91
2022/03/17 03:34:20;;;;;;;43.80;28.98;;;10.20;99.90;;;;;;4972176;28;20047;-91
2022/03/17 03:39:31;;;;;;;47.03;31.27;;;10.00;99.90;;;;;;4967796;28;20074;-91
2022/03/17 03:41:57;;;;;;;47.22;30.40;;;10.00;99.90;;;;;;4968165;28;20038;-90
2022/03/17 03:44:23;;;;;;;48.72;32.97;;;10.10;99.90;;;;;;4939193;28;20406;-90
2022/03/17 03:46:49;;;;;;;49.83;32.20;;;9.80;99.90;;;;;;4957260;28;20035;-90
2022/03/17 03:49:14;;;;;;;47.30;30.35;;;9.70;99.90;;;;;;4972193;28;20039;-90
2022/03/17 03:51:40;;;;;;;49.30;32.25;;;9.70;99.90;;;;;;4945548;28;20485;-90
2022/03/17 03:54:18;;;;;;;54.00;35.30;;;9.60;99.90;;;;;;4963044;28;20134;-90
2022/03/17 03:56:50;;;;;;;55.50;35.70;;;10.20;99.90;;;;;;4961640;28;20051;-91
2022/03/17 03:59:21;;;;;;;50.90;34.22;;;9.50;99.90;;;;;;4974719;28;20106;-91
2022/03/17 04:01:48;;;;;;;52.53;34.80;;;9.50;99.90;;;;;;4947990;28;20442;-91
2022/03/17 04:04:20;;;;;;;49.95;32.08;;;9.40;99.90;;;;;;4974845;28;20054;-92
2022/03/17 04:06:48;;;;;;;57.67;35.40;;;9.40;99.90;;;;;;4991230;28;20031;-91
2022/03/17 04:09:14;;;;;;;54.42;33.28;;;9.50;99.90;;;;;;4974560;28;20077;-91
2022/03/17 04:11:41;;;;;;;56.08;35.63;;;9.50;99.90;;;;;;4954846;28;20035;-90
2022/03/17 04:14:08;;;;;;;61.15;36.72;;;9.50;99.90;;;;;;4956600;28;20568;-90
2022/03/17 04:16:34;;;;;;;59.65;36.90;;;9.30;99.90;;;;;;4974449;28;20053;-91
2022/03/17 04:19:01;;;;;;;52.05;31.52;;;9.30;99.90;;;;;;4968257;28;20129;-90
2022/03/17 04:21:27;;;;;;;55.53;33.92;;;9.30;99.90;;;;;;4974314;28;20077;-91
2022/03/17 04:23:52;;;;;;;60.45;36.55;;;9.30;99.90;;;;;;4972972;28;20450;-91
2022/03/17 04:26:18;;;;;;;58.78;36.00;;;9.70;99.90;;;;;;4958571;28;20200;-90
2022/03/17 04:28:44;;;;;;;42.47;26.63;;;9.40;99.90;;;;;;4970059;28;20034;-90
2022/03/17 04:31:10;;;;;;;31.13;19.17;;;9.40;99.90;;;;;;4954382;28;20046;-89
2022/03/17 04:33:35;;;;;;;24.70;14.38;;;9.30;99.90;;;;;;4957177;28;20054;-91
2022/03/17 04:36:05;;;;;;;18.67;11.60;;;9.10;99.90;;;;;;4962246;28;20047;-90
2022/03/17 04:38:32;;;;;;;16.58;10.75;;;8.90;99.90;;;;;;4955570;28;20047;-87
2022/03/17 04:40:58;;;;;;;13.35;9.07;;;8.70;99.90;;;;;;4965580;28;20043;-86
2022/03/17 04:43:25;;;;;;;15.85;10.27;;;8.50;99.90;;;;;;4956119;28;20042;-86
2022/03/17 04:45:51;;;;;;;16.70;10.10;;;8.90;99.90;;;;;;4967520;28;20045;-86
2022/03/17 04:48:17;;;;;;;14.93;9.93;;;8.30;99.90;;;;;;4970293;28;20074;-86
2022/03/17 04:50:43;;;;;;;14.30;8.38;;;8.20;99.90;;;;;;4955390;28;20062;-85
2022/03/17 04:53:27;;;;;;;15.00;9.93;;;9.00;99.90;;;;;;4972022;28;20043;-86
2022/03/17 04:56:10;;;;;;;14.13;9.80;;;8.10;99.90;;;;;;4956112;28;20461;-86
2022/03/17 04:58:38;;;;;;;13.25;8.95;;;8.00;99.90;;;;;;4962397;28;20028;-86
2022/03/17 05:01:05;;;;;;;15.15;9.60;;;8.00;99.90;;;;;;4967021;28;20120;-86
2022/03/17 05:03:31;;;;;;;15.77;9.05;;;7.90;99.90;;;;;;4969210;28;20047;-86
2022/03/17 05:05:57;;;;;;;16.13;8.15;;;7.90;99.90;;;;;;4972576;28;20404;-86
2022/03/17 05:08:23;;;;;;;13.90;9.00;;;7.80;99.90;;;;;;4948543;28;20057;-85
2022/03/17 05:10:52;;;;;;;17.15;10.05;;;7.80;99.90;;;;;;4970114;28;20534;-85
2022/03/17 05:13:19;;;;;;;16.05;9.15;;;7.80;99.90;;;;;;4951620;28;20047;-89
2022/03/17 05:15:47;;;;;;;17.50;10.20;;;7.80;99.90;;;;;;4973468;28;20492;-88
2022/03/17 05:18:13;;;;;;;19.60;10.35;;;7.70;99.90;;;;;;4942486;29;20073;-88
2022/03/17 05:20:43;;;;;;;20.83;10.25;;;7.70;99.90;;;;;;4959100;28;20054;-92
2022/03/17 05:23:11;;;;;;;21.17;11.45;;;7.70;99.90;;;;;;4973162;28;20119;-93
2022/03/17 05:25:40;;;;;;;20.73;10.82;;;7.80;99.90;;;;;;4972920;28;20081;-93
2022/03/17 05:28:10;;;;;;;27.80;12.70;;;7.70;99.90;;;;;;4957185;28;20472;-93
2022/03/17 05:30:37;;;;;;;28.00;12.82;;;8.30;99.90;;;;;;4957530;28;20093;-94
2022/03/17 05:33:03;;;;;;;27.35;12.30;;;8.70;99.90;;;;;;4957485;28;20501;-94
2022/03/17 05:35:30;;;;;;;30.33;12.07;;;7.70;99.90;;;;;;4941712;28;20134;-94
2022/03/17 05:37:59;;;;;;;27.10;11.95;;;7.60;99.90;;;;;;4957631;28;20088;-94
2022/03/17 05:40:25;;;;;;;19.42;8.60;;;7.60;99.90;;;;;;4957666;28;20054;-94
2022/03/17 05:42:56;;;;;;;23.90;9.10;;;8.10;99.90;;;;;;4957771;28;20042;-94
2022/03/17 05:45:27;;;;;;;25.80;7.65;;;7.60;99.90;;;;;;4956164;28;20049;-89
2022/03/17 05:47:57;;;;;;;19.77;7.10;;;7.60;99.90;;;;;;4970478;28;20382;-88
2022/03/17 05:50:25;;;;;;;18.65;5.97;;;7.50;99.90;;;;;;4973151;28;20054;-88
2022/03/17 05:52:51;;;;;;;18.08;5.55;;;8.30;99.90;;;;;;4984805;28;20046;-88
2022/03/17 05:55:19;;;;;;;18.23;5.35;;;7.50;99.90;;;;;;4962942;28;20050;-88
2022/03/17 05:57:46;;;;;;;19.38;5.40;;;7.30;99.90;;;;;;4972490;28;20046;-88
2022/03/17 06:00:16;;;;;;;17.92;5.25;;;7.50;99.90;;;;;;4972056;28;20047;-89
2022/03/17 06:02:42;;;;;;;14.93;5.10;;;7.50;99.90;;;;;;4969325;28;20039;-87
2022/03/17 06:05:09;;;;;;;15.52;4.07;;;7.40;99.90;;;;;;4935982;28;20115;-86
2022/03/17 06:07:41;;;;;;;14.00;4.95;;;7.50;99.90;;;;;;4972591;28;20045;-86
2022/03/17 06:10:12;;;;;;;15.23;4.75;;;7.50;99.90;;;;;;4957206;28;20094;-86
2022/03/17 06:12:39;;;;;;;14.60;4.20;;;7.50;99.90;;;;;;4976773;28;20389;-85
2022/03/17 06:15:07;;;;;;;15.57;4.53;;;7.90;99.90;;;;;;4976077;28;20043;-86
2022/03/17 06:17:49;;;;;;;17.52;4.85;;;7.50;99.90;;;;;;4975222;28;20057;-85
2022/03/17 06:20:24;;;;;;;13.55;3.90;;;7.60;99.90;;;;;;4975130;28;20047;-92
2022/03/17 06:22:51;;;;;;;9.18;3.30;;;7.50;99.90;;;;;;4944637;28;20481;-93
2022/03/17 06:25:19;;;;;;;14.35;3.13;;;8.30;99.90;;;;;;4987655;28;20122;-93
2022/03/17 06:27:47;;;;;;;12.82;3.30;;;7.60;99.90;;;;;;4974678;28;20043;-93
2022/03/17 06:30:15;;;;;;;14.50;3.25;;;7.40;99.90;;;;;;4973873;28;20050;-92
2022/03/17 06:32:41;;;;;;;14.13;3.25;;;7.40;99.90;;;;;;4974320;28;20378;-92
2022/03/17 06:35:20;;;;;;;11.40;3.40;;;7.60;99.90;;;;;;4974894;28;20137;-90
2022/03/17 06:37:51;;;;;;;14.15;3.40;;;7.40;99.90;;;;;;4959730;28;20042;-91
2022/03/17 06:40:17;;;;;;;11.60;2.72;;;7.40;99.90;;;;;;4973131;28;20145;-91
2022/03/17 06:42:43;;;;;;;10.52;2.63;;;7.40;99.90;;;;;;4962347;28;20110;-90
2022/03/17 06:45:10;;;;;;;17.42;3.10;;;7.40;99.90;;;;;;4988385;28;20035;-88
2022/03/17 06:47:36;;;;;;;10.85;2.70;;;7.40;99.90;;;;;;4943807;28;20030;-88
2022/03/17 06:50:03;;;;;;;13.10;2.70;;;7.40;99.90;;;;;;4956666;28;20027;-88
2022/03/17 06:52:29;;;;;;;10.52;2.72;;;7.40;99.90;;;;;;4989939;28;20548;-90
2022/03/17 06:54:55;;;;;;;12.75;2.88;;;7.40;99.90;;;;;;4972211;28;20043;-90
2022/03/17 06:57:22;;;;;;;9.30;2.60;;;7.40;99.90;;;;;;4974321;28;20047;-91
2022/03/17 06:59:48;;;;;;;14.57;2.42;;;7.60;99.90;;;;;;4940630;28;20130;-90
2022/03/17 07:02:15;;;;;;;18.67;2.93;;;7.50;99.90;;;;;;4969944;28;20050;-90
2022/03/17 07:04:41;;;;;;;14.07;2.92;;;8.00;99.90;;;;;;4955104;28;20074;-91
2022/03/17 07:07:07;;;;;;;8.77;2.38;;;7.40;99.90;;;;;;4972042;28;20035;-91
2022/03/17 07:09:33;;;;;;;12.88;2.58;;;7.60;99.90;;;;;;4968582;28;20126;-95
2022/03/17 07:11:59;;;;;;;17.48;2.67;;;7.50;99.90;;;;;;4960322;28;20089;-94
2022/03/17 07:14:25;;;;;;;13.10;2.80;;;7.40;99.90;;;;;;4960104;28;20039;-87
2022/03/17 07:16:50;;;;;;;15.90;3.25;;;7.50;99.90;;;;;;4974480;28;20039;-87
2022/03/17 07:19:16;;;;;;;10.75;2.63;;;7.40;99.90;;;;;;4961487;28;20046;-87
2022/03/17 07:21:42;;;;;;;16.13;2.67;;;7.60;99.90;;;;;;4944611;29;20134;-94
2022/03/17 07:24:09;;;;;;;14.23;2.15;;;7.40;99.90;;;;;;4940870;29;20040;-95
2022/03/17 07:26:40;;;;;;;15.70;2.63;;;7.40;99.90;;;;;;4971376;28;20039;-85
2022/03/17 07:29:05;;;;;;;17.85;2.92;;;7.40;99.90;;;;;;4972423;28;20047;-86
2022/03/17 07:31:31;;;;;;;13.27;2.80;;;7.40;99.90;;;;;;4972063;28;20031;-86
2022/03/17 07:33:59;;;;;;;11.48;2.78;;;7.60;99.90;;;;;;4934919;28;20054;-86
2022/03/17 07:36:26;;;;;;;15.55;2.88;;;7.40;99.90;;;;;;4953821;28;20105;-86
2022/03/17 07:38:54;;;;;;;17.58;2.90;;;7.40;99.90;;;;;;4972088;28;20046;-87
2022/03/17 07:41:19;;;;;;;16.80;2.78;;;7.50;99.90;;;;;;4973367;28;20502;-94
2022/03/17 07:43:46;;;;;;;18.23;2.92;;;7.40;99.90;;;;;;4974984;28;20418;-94
2022/03/17 07:46:13;;;;;;;10.02;2.22;;;7.50;99.90;;;;;;4975134;28;20083;-94
2022/03/17 07:48:41;;;;;;;16.60;2.95;;;7.50;99.90;;;;;;4959214;28;20050;-94
2022/03/17 07:51:08;;;;;;;16.67;2.78;;;7.60;99.90;;;;;;4958956;28;20031;-93
2022/03/17 07:53:34;;;;;;;13.95;2.30;;;7.40;99.90;;;;;;4971662;28;20051;-94
2022/03/17 07:56:01;;;;;;;14.63;2.72;;;7.50;99.90;;;;;;4932281;28;20042;-94
2022/03/17 07:58:27;;;;;;;12.73;2.83;;;7.40;99.90;;;;;;4973969;28;20109;-87
2022/03/17 08:00:55;;;;;;;17.98;2.50;;;7.40;99.90;;;;;;4973215;28;20034;-86
2022/03/17 08:03:21;;;;;;;17.02;3.10;;;7.40;99.90;;;;;;4972934;28;20097;-86
2022/03/17 08:05:48;;;;;;;16.77;2.97;;;7.50;99.90;;;;;;4981021;28;20552;-86
2022/03/17 08:08:14;;;;;;;16.52;3.08;;;7.50;99.90;;;;;;4947223;28;20520;-86
2022/03/17 08:10:40;;;;;;;15.75;2.80;;;7.50;99.90;;;;;;4972351;28;20034;-87
2022/03/17 08:13:08;;;;;;;17.05;3.00;;;7.60;99.90;;;;;;4940729;28;20050;-86
2022/03/17 08:15:34;;;;;;;14.30;3.15;;;7.70;99.90;;;;;;4956463;28;20045;-88
2022/03/17 08:17:59;;;;;;;13.73;2.75;;;7.70;99.90;;;;;;4972905;28;20046;-89
2022/03/17 08:20:25;;;;;;;19.02;3.42;;;7.50;99.90;;;;;;4951340;28;20145;-89
2022/03/17 08:22:51;;;;;;;22.00;3.58;;;7.50;99.90;;;;;;4972570;28;20034;-89
2022/03/17 08:25:17;;;;;;;18.27;4.10;;;7.40;99.90;;;;;;4956698;28;20146;-89
2022/03/17 08:27:43;;;;;;;16.63;2.92;;;7.40;99.90;;;;;;4948469;28;20035;-89
2022/03/17 08:30:10;;;;;;;15.90;2.97;;;8.40;99.90;;;;;;4938307;28;20527;-89
2022/03/17 08:32:37;;;;;;;19.25;3.10;;;7.50;99.90;;;;;;4949796;28;20047;-87
2022/03/17 08:35:03;;;;;;;14.15;3.00;;;8.50;99.90;;;;;;4972103;28;20051;-86
2022/03/17 08:37:30;;;;;;;16.73;3.28;;;7.50;99.90;;;;;;4972734;28;20429;-86
2022/03/17 08:39:56;;;;;;;18.00;3.33;;;7.60;99.90;;;;;;4972340;28;20396;-89
2022/03/17 08:42:21;;;;;;;14.23;2.80;;;8.30;99.90;;;;;;4972337;28;20049;-89
2022/03/17 08:44:47;;;;;;;16.90;2.75;;;7.90;99.90;;;;;;4941077;28;20027;-89
2022/03/17 08:50:00;;;;;;;12.35;2.50;;;8.00;99.90;;;;;;4972153;28;20439;-87
2022/03/17 08:52:27;;;;;;;12.75;2.42;;;7.90;99.90;;;;;;4954728;28;20039;-87
2022/03/17 08:54:54;;;;;;;14.23;2.70;;;7.90;99.90;;;;;;4971977;28;20039;-87
2022/03/17 08:57:20;;;;;;;17.27;2.53;;;8.00;99.90;;;;;;4972316;28;20035;-87
2022/03/17 08:59:46;;;;;;;15.80;2.40;;;7.70;99.90;;;;;;4972077;28;20054;-87
2022/03/17 09:02:12;;;;;;;19.52;3.00;;;7.70;99.90;;;;;;4971903;28;20035;-87
2022/03/17 09:04:38;;;;;;;13.40;3.22;;;8.40;99.90;;;;;;4970443;28;20445;-92
2022/03/17 09:07:04;;;;;;;11.80;3.13;;;8.90;99.90;;;;;;4953984;28;20125;-92
2022/03/17 09:09:32;;;;;;;13.90;2.72;;;9.10;99.90;;;;;;4956776;28;20038;-92
2022/03/17 09:11:59;;;;;;;13.07;3.15;;;9.20;99.90;;;;;;4955168;28;20389;-92
2022/03/17 09:14:25;;;;;;;10.55;2.35;;;9.30;99.90;;;;;;4972629;28;20149;-92
2022/03/17 09:16:51;;;;;;;15.32;2.50;;;9.50;99.90;;;;;;4969990;28;20086;-92
2022/03/17 09:19:19;;;;;;;14.02;3.53;;;9.60;99.90;;;;;;4949081;28;20497;-93
2022/03/17 09:21:46;;;;;;;13.82;3.00;;;9.40;99.90;;;;;;4938797;28;20101;-92
2022/03/17 09:24:11;;;;;;;11.93;2.35;;;9.80;99.90;;;;;;4957477;28;20102;-92
2022/03/17 09:26:37;;;;;;;10.52;2.38;;;10.70;99.90;;;;;;4945576;28;20034;-92
2022/03/17 09:29:04;;;;;;;16.38;2.50;;;11.30;99.90;;;;;;4971272;28;20129;-92
2022/03/17 09:31:30;;;;;;;9.25;2.28;;;11.20;99.90;;;;;;4954929;28;20049;-93
2022/03/17 09:33:57;;;;;;;10.30;2.53;;;11.40;99.90;;;;;;4971485;28;20050;-92
2022/03/17 09:36:23;;;;;;;12.40;2.63;;;11.30;99.90;;;;;;4970612;28;20042;-93
2022/03/17 09:41:35;;;;;;;11.48;2.97;;;10.30;99.90;;;;;;4970430;28;20051;-95
2022/03/17 09:44:02;;;;;;;10.10;2.72;;;10.80;99.90;;;;;;4956218;28;20129;-94
2022/03/17 09:46:29;;;;;;;9.50;2.40;;;11.20;99.90;;;;;;4950577;23;20038;-88
2022/03/17 09:48:55;;;;;;;12.15;2.60;;;11.60;99.90;;;;;;5029336;28;20411;-87
2022/03/17 09:51:26;;;;;;;11.88;2.20;;;11.60;99.90;;;;;;5015377;28;20049;-87
2022/03/17 09:53:54;;;;;;;15.02;2.85;;;11.70;99.90;;;;;;4997237;28;20041;-87
2022/03/17 09:56:23;;;;;;;8.43;2.40;;;12.70;99.90;;;;;;5012374;28;20041;-90
2022/03/17 09:58:54;;;;;;;9.48;2.20;;;13.80;99.90;;;;;;5015783;28;20041;-90
2022/03/17 10:01:21;;;;;;;10.88;2.38;;;13.80;99.90;;;;;;5032236;28;20389;-90
2022/03/17 10:03:47;;;;;;;9.77;2.33;;;13.50;99.90;;;;;;4997736;28;20494;-90
2022/03/17 10:06:14;;;;;;;10.43;2.40;;;13.80;99.90;;;;;;5013537;28;20076;-90
2022/03/17 10:08:42;;;;;;;11.73;2.85;;;14.30;99.90;;;;;;5012634;28;20041;-90
2022/03/17 10:11:08;;;;;;;11.60;2.63;;;14.10;99.90;;;;;;5030246;28;20080;-95
2022/03/17 10:13:44;;;;;;;11.10;2.85;;;14.00;99.90;;;;;;5000419;28;20045;-95
2022/03/17 10:16:14;;;;;;;12.45;2.78;;;13.80;99.90;;;;;;5015576;28;20045;-96
2022/03/17 10:18:39;;;;;;;13.75;4.55;;;13.20;99.90;;;;;;5015662;28;20079;-95
2022/03/17 10:21:06;;;;;;;13.13;4.00;;;12.60;99.90;;;;;;5015805;28;20077;-96
2022/03/17 10:23:32;;;;;;;16.30;5.40;;;12.50;99.90;;;;;;5015224;28;20042;-94
2022/03/17 10:25:58;;;;;;;15.15;4.75;;;13.20;99.90;;;;;;5015459;28;20095;-96
2022/03/17 10:28:26;;;;;;;14.52;5.20;;;14.30;99.90;;;;;;5014393;28;20026;-87
2022/03/17 10:31:12;;;;;;;14.32;4.90;;;15.30;97.20;;;;;;5012282;28;20518;-87
2022/03/17 10:33:38;;;;;;;13.05;2.70;;;16.00;92.70;;;;;;4997111;28;20495;-88
2022/03/17 10:36:20;;;;;;;12.48;3.10;;;16.10;94.60;;;;;;5015220;28;20045;-87
2022/03/17 10:38:47;;;;;;;9.80;2.55;;;15.70;93.50;;;;;;4999787;28;20041;-86
2022/03/17 10:41:13;;;;;;;10.93;2.80;;;15.30;93.50;;;;;;4996899;28;20041;-85
2022/03/17 10:43:42;;;;;;;13.95;2.92;;;14.50;95.30;;;;;;5013266;28;20034;-85
2022/03/17 10:46:19;;;;;;;12.25;3.00;;;14.80;95.20;;;;;;5015030;28;20454;-93
2022/03/17 10:49:05;;;;;;;11.13;3.03;;;15.40;94.90;;;;;;5047084;28;20455;-93
2022/03/17 10:51:34;;;;;;;11.88;2.60;;;14.90;91.80;;;;;;5031559;28;20498;-94
2022/03/17 10:54:07;;;;;;;10.00;2.55;;;14.70;92.30;;;;;;5048313;28;20132;-92
2022/03/17 10:56:35;;;;;;;12.55;2.97;;;14.30;95.20;;;;;;5031607;28;20041;-93
2022/03/17 10:59:01;;;;;;;12.45;2.80;;;14.00;95.80;;;;;;5032667;28;20041;-94
2022/03/17 11:01:45;;;;;;;12.77;2.67;;;13.30;97.20;;;;;;5018528;28;20037;-90
2022/03/17 11:04:12;;;;;;;10.25;2.90;;;13.50;96.80;;;;;;5032041;28;20049;-90
2022/03/17 11:06:39;;;;;;;11.80;2.90;;;14.10;96.90;;;;;;5031942;28;20071;-91
2022/03/17 11:09:08;;;;;;;10.55;2.33;;;14.70;94.10;;;;;;5013650;28;20099;-91
2022/03/17 11:11:37;;;;;;;10.25;2.65;;;15.60;93.30;;;;;;5031802;28;20479;-91
2022/03/17 11:14:04;;;;;;;10.27;2.80;;;16.60;90.70;;;;;;5025865;28;20128;-91
2022/03/17 11:16:42;;;;;;;11.05;2.67;;;15.90;90.70;;;;;;5031941;28;20037;-90
2022/03/17 11:19:13;;;;;;;11.20;2.92;;;16.20;90.80;;;;;;5032226;28;20037;-93
2022/03/17 11:21:44;;;;;;;12.38;2.30;;;16.60;90.20;;;;;;5032679;28;20041;-91
2022/03/17 11:24:19;;;;;;;12.50;2.58;;;16.80;83.40;;;;;;5017854;28;20391;-93
2022/03/17 11:26:45;;;;;;;12.67;3.13;;;16.00;85.50;;;;;;5031175;28;20037;-93
2022/03/17 11:29:17;;;;;;;13.77;2.70;;;15.40;90.20;;;;;;5034706;28;20041;-92
2022/03/17 11:31:58;;;;;;;8.85;2.70;;;14.70;91.10;;;;;;5051605;28;20192;-93
2022/03/17 11:34:47;;;;;;;9.75;2.88;;;14.70;92.50;;;;;;5051052;28;20091;-92
2022/03/17 11:37:19;;;;;;;8.07;2.20;;;15.60;92.60;;;;;;5033550;28;20133;-90
2022/03/17 11:39:49;;;;;;;10.80;2.67;;;15.70;88.40;;;;;;5030663;28;20237;-90
2022/03/17 11:42:33;;;;;;;13.90;3.10;;;15.60;89.00;;;;;;5046579;28;20120;-90
2022/03/17 11:45:11;;;;;;;9.38;2.60;;;16.00;88.30;;;;;;5049996;28;20069;-90
2022/03/17 11:47:38;;;;;;;10.40;2.78;;;16.30;87.50;;;;;;5043272;28;20499;-90
2022/03/17 11:50:38;;;;;;;10.10;2.50;;;17.20;85.40;;;;;;5017164;28;20442;-90
2022/03/17 11:53:06;;;;;;;8.80;2.38;;;18.00;84.40;;;;;;5050928;28;20046;-93
2022/03/17 11:55:36;;;;;;;11.23;3.25;;;17.70;84.50;;;;;;5034593;28;20037;-94
2022/03/17 11:58:37;;;;;;;10.77;2.78;;;18.00;80.30;;;;;;5051000;28;20053;-93
2022/03/17 12:01:06;;;;;;;8.70;2.78;;;17.70;78.40;;;;;;5024936;28;20063;-93
2022/03/17 12:03:58;;;;;;;11.90;2.72;;;18.40;79.90;;;;;;5033514;28;20037;-92
2022/03/17 12:06:26;;;;;;;10.68;3.08;;;19.00;77.00;;;;;;5006701;28;20053;-93
2022/03/17 12:09:04;;;;;;;10.20;2.78;;;19.20;74.80;;;;;;5032892;28;20037;-92
2022/03/17 12:11:42;;;;;;;9.65;2.78;;;18.80;75.70;;;;;;5029540;28;20038;-91
2022/03/17 12:14:22;;;;;;;10.32;2.63;;;18.00;76.30;;;;;;5029426;28;20120;-91
2022/03/17 12:17:19;;;;;;;11.05;2.88;;;17.50;75.00;;;;;;5012596;28;20033;-89
2022/03/17 12:19:49;;;;;;;9.23;2.40;;;15.90;77.40;;;;;;5048590;28;20136;-89
2022/03/17 12:22:31;;;;;;;7.05;2.47;;;15.60;79.30;;;;;;5032852;28;20053;-89
2022/03/17 12:25:03;;;;;;;7.13;2.40;;;16.10;80.20;;;;;;5046581;28;20038;-91
2022/03/17 12:27:34;;;;;;;12.25;2.78;;;15.80;80.10;;;;;;5015578;28;20052;-90
2022/03/17 12:30:05;;;;;;;9.68;3.00;;;15.90;80.70;;;;;;5015013;28;20046;-90
2022/03/17 12:32:39;;;;;;;10.07;2.35;;;16.20;80.00;;;;;;5031983;28;20103;-90
2022/03/17 12:35:09;;;;;;;8.65;2.45;;;17.20;79.10;;;;;;5046986;28;20523;-90
2022/03/17 12:37:35;;;;;;;8.35;2.72;;;17.60;77.40;;;;;;5044840;28;20483;-89
2022/03/17 12:40:04;;;;;;;8.18;2.28;;;17.80;74.70;;;;;;5043626;28;20033;-90
2022/03/17 12:42:36;;;;;;;10.50;2.60;;;18.30;75.40;;;;;;5031598;28;20045;-93
2022/03/17 12:45:08;;;;;;;10.23;2.42;;;18.60;75.10;;;;;;5033568;28;20371;-93
2022/03/17 12:47:39;;;;;;;11.38;2.42;;;19.10;71.40;;;;;;5030717;28;20484;-93
2022/03/17 12:50:13;;;;;;;9.10;2.28;;;18.90;71.30;;;;;;5033067;28;20057;-94
2022/03/17 12:52:41;;;;;;;9.15;2.72;;;19.00;69.10;;;;;;5015941;28;20083;-94
2022/03/17 12:55:10;;;;;;;8.30;2.58;;;18.70;69.90;;;;;;5031534;28;20044;-93
2022/03/17 12:57:37;;;;;;;9.15;2.75;;;17.90;67.30;;;;;;5032766;28;20049;-94